Saturday, October 1, 2016, 9:45 AM EDT
Back to Local

KPTW, Pottstown Limerick Airport

Location: Royersford, PA, United States Lat: 40.233
Local Time: 9:45 AM EDT (13:45 GMT) Lon: -75.55
Time Zone: US/Eastern Elev: 291 ft

Show me the last for .
Show Decoded

2016-10-01 08:54 METAR KPTW 011254Z AUTO 06007KT 10SM OVC008 14/12 A3022 RMK AO2 SLP230 T01390122
                 =
2016-10-01 07:54 METAR KPTW 011154Z AUTO 07005KT 10SM OVC007 13/12 A3021 RMK AO2 SLP228 70019
                 T01330122 10133 20128 53005 =
2016-10-01 06:54 METAR KPTW 011054Z AUTO 06006KT 10SM OVC006 13/12 A3020 RMK AO2 SLP224 T01280122
                 =
2016-10-01 05:54 METAR KPTW 010954Z AUTO 06008KT 10SM OVC006 13/12 A3020 RMK AO2 SLP224 T01280122
                 =
2016-10-01 04:54 METAR KPTW 010854Z AUTO 06008KT 9SM OVC007 13/12 A3020 RMK AO2 SLP222 T01280122
                 56010 =
2016-10-01 03:54 METAR KPTW 010754Z AUTO 05010KT 8SM OVC006 13/12 A3020 RMK AO2 SLP225 T01280122
                 =
2016-10-01 02:54 METAR KPTW 010654Z AUTO 05008KT 6SM BR OVC006 13/12 A3021 RMK AO2 SLP229
                 T01280122 =
2016-10-01 01:54 METAR KPTW 010554Z AUTO 06008KT 7SM OVC008 13/12 A3023 RMK AO2 SLP233 T01330122
                 10139 20128 56002 =
2016-10-01 00:54 METAR KPTW 010454Z AUTO 06006KT 10SM OVC008 13/13 A3023 RMK AO2 SLP234 T01330128
                 401500117 =
2016-09-30 23:54 METAR KPTW 010354Z AUTO 05008G14KT 10SM OVC009 13/13 A3022 RMK AO2 SLP232
                 T01330128 =
2016-09-30 22:54 METAR KPTW 010254Z AUTO 05007KT 10SM OVC009 14/13 A3023 RMK AO2 SLP235 T01390128
                 58000 =
2016-09-30 21:54 METAR KPTW 010154Z AUTO 05008KT 10SM OVC009 14/13 A3024 RMK AO2 SLP238 T01390128
                 =
2016-09-30 20:54 METAR KPTW 010054Z AUTO 05010KT 10SM OVC009 14/13 A3024 RMK AO2 CIG 007V013
                 SLP238 T01390133 =
2016-09-30 19:54 METAR KPTW 302354Z AUTO 06008KT 6SM BR OVC009 14/13 A3024 RMK AO2 RAB19E49 CIG
                 007V014 SLP236 P0001 60003 T01390133 10150 20139 50000 =
2016-09-30 18:54 METAR KPTW 302254Z AUTO 06006KT 6SM BR OVC009 14/13 A3024 RMK AO2 CIG 006V011
                 SLP237 T01390133 =
2016-09-30 18:21 METAR KPTW 302221Z AUTO 05011KT 3SM BR BKN008 OVC015 14/14 A3022 RMK AO2 CIG
                 006V013 T01390139 =
2016-09-30 18:02 METAR KPTW 302202Z AUTO 06008KT 2 1/2SM BR BKN008 OVC012 14/14 A3023 RMK AO2 CIG
                 006V010 T01390139 =
2016-09-30 17:54 METAR KPTW 302154Z AUTO 05008KT 2 1/2SM BR OVC010 14/14 A3023 RMK AO2 CIG
                 006V014 SLP235 T01440139 =
2016-09-30 16:54 METAR KPTW 302054Z AUTO 05008KT 2 1/2SM BR OVC008 14/14 A3022 RMK AO2 RAE50
                 SLP231 P0001 60002 T01440139 55007 =
2016-09-30 16:47 METAR KPTW 302047Z AUTO 05011KT 2SM -RA BR BKN008 OVC013 14/14 A3022 RMK AO2
                 P0001 T01440139 =
2016-09-30 16:21 METAR KPTW 302021Z AUTO 05008KT 1 3/4SM -RA BR BKN009 OVC012 14/14 A3022 RMK AO2
                 CIG 006V011 P0001 T01440139 =
2016-09-30 15:54 METAR KPTW 301954Z AUTO 06006KT 2 1/2SM -RA BR OVC013 14/14 A3022 RMK AO2 SLP231
                 P0000 T01440139 =
2016-09-30 15:28 METAR KPTW 301928Z AUTO 06006KT 2SM -RA BR OVC013 15/14 A3023 RMK AO2 P0000
                 T01500139 =
2016-09-30 14:54 METAR KPTW 301854Z AUTO 06007KT 4SM -RA BR OVC014 15/13 A3024 RMK AO2 RAB10
                 SLP236 P0001 T01500133 =
2016-09-30 13:54 METAR KPTW 301754Z AUTO 06008KT 10SM OVC012 14/13 A3024 RMK AO2 SLP238 60016
                 T01440128 10144 20117 58012 =
2016-09-30 12:54 METAR KPTW 301654Z AUTO 05008KT 8SM OVC012 14/12 A3026 RMK AO2 SLP244 T01390122
                 =
2016-09-30 11:54 METAR KPTW 301554Z AUTO 05012KT 10SM OVC011 13/12 A3027 RMK AO2 SLP249 T01330117
                 =
2016-09-30 10:54 METAR KPTW 301454Z AUTO 06006G15KT 10SM OVC011 13/12 A3028 RMK AO2 SLP250 60016
                 T01280117 53002 =
2016-09-30 09:54 METAR KPTW 301354Z AUTO 05010G18KT 10SM OVC013 12/11 A3027 RMK AO2 RAE27 SLP248
                 P0006 T01220111 =

Support USWX by starting your Amazon purchase here.